Allensburg, Ohio
Current Conditions -  °F | °C
As of 2:54 PM on Wednesday 26 Nov 2014 (Local Time) from KILN Reporting Station
Overcast Overcast  
Wind Chill: -2°   Ceiling: 2900
Heat Index:   Visibility: 8mi
Dew Point: -3°   Wind: 6mph
Humidity: 75%   Direction: 340°NNW
Pressure: 30.03"   Gusts: NA
Location:  39.1546°N, 83.569°W
Report Text: KILN 261954Z AUTO 34005KT 8SM OVC029 01/M03 A3003 RMK AO2 SLP198 T00111028
Loading
Personal Weather Stations






























Interactive Weather Map New forecast layout! Learn more

10-Day Weather Forecast

Advertisements
Track Severe Weather on mobile